Time;durP1;ratioP1;P1;durP2;ratioP2;P2;SDS_P1;SDS_P2;PMS_P1;PMS_P2;Temp;Humidity;BMP_temperature;BMP_pressure;BME280_temperature;BME280_humidity;BME280_pressure;Samples;Min_cycle;Max_cycle;Signal;HPM_P1;HPM_P2
2022/09/23 00:00:44;;;;;;;15.93;13.23;;;10.60;99.90;;;;;;5092896;28;20123;-63
2022/09/23 00:03:10;;;;;;;16.08;13.18;;;11.80;99.90;;;;;;5093358;28;20211;-63
2022/09/23 00:05:39;;;;;;;16.92;13.15;;;11.40;99.90;;;;;;5092819;28;20551;-63
2022/09/23 00:08:06;;;;;;;15.10;13.50;;;10.70;99.90;;;;;;5092495;28;20043;-70
2022/09/23 00:10:36;;;;;;;15.05;13.30;;;10.40;99.90;;;;;;5092843;28;20052;-66
2022/09/23 00:13:03;;;;;;;16.92;14.35;;;11.10;99.90;;;;;;5092438;28;20597;-63
2022/09/23 00:15:30;;;;;;;17.80;13.70;;;10.70;99.90;;;;;;5092555;28;20562;-65
2022/09/23 00:17:56;;;;;;;19.20;14.43;;;10.50;99.90;;;;;;5092507;28;20413;-63
2022/09/23 00:20:22;;;;;;;15.80;14.18;;;10.70;99.90;;;;;;5092763;28;20063;-65
2022/09/23 00:22:48;;;;;;;16.50;14.40;;;10.30;99.90;;;;;;5092444;28;20059;-63
2022/09/23 00:25:14;;;;;;;15.75;14.00;;;10.30;99.90;;;;;;5091736;28;20105;-63
2022/09/23 00:27:41;;;;;;;15.57;14.07;;;10.70;99.90;;;;;;5091595;28;20109;-64
2022/09/23 00:30:08;;;;;;;17.90;15.57;;;10.50;99.90;;;;;;5092573;28;20109;-63
2022/09/23 00:32:35;;;;;;;17.13;14.43;;;10.40;99.90;;;;;;5092116;28;20472;-63
2022/09/23 00:35:02;;;;;;;27.60;16.25;;;10.50;99.90;;;;;;5092447;28;20432;-63
2022/09/23 00:37:28;;;;;;;22.17;15.95;;;10.40;99.90;;;;;;5090649;28;20534;-64
2022/09/23 00:39:54;;;;;;;18.98;15.65;;;11.20;99.90;;;;;;5092447;28;20083;-64
2022/09/23 00:42:22;;;;;;;21.10;15.50;;;10.80;99.90;;;;;;5092464;28;20039;-63
2022/09/23 00:44:53;;;;;;;23.00;16.80;;;10.60;99.90;;;;;;5092411;28;20044;-63
2022/09/23 00:47:41;;;;;;;18.30;16.20;;;11.70;99.90;;;;;;5092384;28;20048;-64
2022/09/23 00:50:25;;;;;;;19.42;15.95;;;10.50;99.90;;;;;;5092397;28;20083;-64
2022/09/23 00:52:55;;;;;;;25.10;17.63;;;10.20;99.90;;;;;;5090644;28;20138;-65
2022/09/23 00:55:35;;;;;;;20.83;16.98;;;10.30;99.90;;;;;;5092047;28;20508;-65
2022/09/23 00:58:04;;;;;;;21.27;17.70;;;10.20;99.90;;;;;;5092337;28;20109;-63
2022/09/23 01:00:32;;;;;;;19.80;17.70;;;10.60;99.90;;;;;;5092165;28;20502;-64
2022/09/23 01:02:59;;;;;;;19.42;17.52;;;11.00;99.90;;;;;;5092144;28;20056;-67
2022/09/23 01:05:25;;;;;;;20.65;18.05;;;10.90;99.90;;;;;;5091136;28;20056;-63
2022/09/23 01:07:52;;;;;;;21.45;17.05;;;10.90;99.90;;;;;;5091872;28;20063;-64
2022/09/23 01:10:18;;;;;;;21.63;17.58;;;10.50;99.90;;;;;;5092146;28;20052;-66
2022/09/23 01:13:20;;;;;;;21.10;18.90;;;10.60;99.90;;;;;;5092023;28;20040;-64
2022/09/23 01:16:00;;;;;;;22.85;19.23;;;10.50;99.90;;;;;;5084339;28;20618;-63
2022/09/23 01:18:32;;;;;;;24.25;19.05;;;10.30;99.90;;;;;;5092113;28;20058;-64
2022/09/23 01:21:27;;;;;;;21.95;18.45;;;10.30;99.90;;;;;;5091862;28;20475;-66
2022/09/23 01:24:16;;;;;;;24.23;19.40;;;10.80;99.90;;;;;;5092039;28;20078;-68
2022/09/23 01:27:06;;;;;;;22.27;18.52;;;10.60;99.90;;;;;;5092304;28;20048;-63
2022/09/23 01:30:09;;;;;;;22.55;19.73;;;10.70;99.90;;;;;;5090651;28;20058;-63
2022/09/23 01:32:46;;;;;;;23.30;19.17;;;10.70;99.90;;;;;;5091866;28;20257;-64
2022/09/23 01:35:29;;;;;;;25.30;19.80;;;10.50;99.90;;;;;;5091759;28;20564;-64
2022/09/23 01:38:11;;;;;;;21.77;19.38;;;10.30;99.90;;;;;;5096014;28;20048;-64
2022/09/23 01:40:53;;;;;;;28.63;19.90;;;10.60;99.90;;;;;;5094687;28;20055;-63
2022/09/23 01:43:27;;;;;;;21.88;19.38;;;10.50;99.90;;;;;;5095814;28;20059;-66
2022/09/23 01:45:57;;;;;;;22.77;19.83;;;10.30;99.90;;;;;;5095856;28;20483;-65
2022/09/23 01:48:53;;;;;;;25.90;20.00;;;10.60;99.90;;;;;;5095714;28;20059;-63
2022/09/23 01:51:34;;;;;;;22.90;19.27;;;10.10;99.90;;;;;;5089395;28;20063;-66
2022/09/23 01:54:14;;;;;;;24.13;19.77;;;10.50;99.90;;;;;;5095611;28;20139;-63
2022/09/23 01:56:51;;;;;;;24.25;20.38;;;10.40;99.90;;;;;;5095494;28;20051;-63
2022/09/23 01:59:24;;;;;;;26.58;20.23;;;10.40;99.90;;;;;;5095763;28;20051;-63
2022/09/23 02:01:56;;;;;;;25.73;19.45;;;11.50;99.90;;;;;;5095430;28;20051;-63
2022/09/23 02:04:33;;;;;;;24.20;21.05;;;10.60;99.90;;;;;;5094048;28;20373;-63
2022/09/23 02:07:14;;;;;;;24.40;20.20;;;10.60;99.90;;;;;;5095358;28;20048;-64
2022/09/23 02:09:44;;;;;;;25.67;20.55;;;10.30;99.90;;;;;;5095331;28;20044;-63
2022/09/23 02:12:16;;;;;;;24.42;20.60;;;10.80;99.90;;;;;;5094927;28;20570;-63
2022/09/23 02:14:45;;;;;;;25.33;21.02;;;10.10;99.90;;;;;;5095265;28;20404;-63
2022/09/23 02:17:16;;;;;;;24.75;20.60;;;10.00;99.90;;;;;;5095123;28;20079;-65
2022/09/23 02:19:49;;;;;;;27.20;21.13;;;10.60;99.90;;;;;;5094564;28;20044;-63
2022/09/23 02:22:23;;;;;;;23.13;20.10;;;10.50;99.90;;;;;;5095142;28;20068;-64
2022/09/23 02:24:49;;;;;;;23.05;20.55;;;9.90;99.90;;;;;;5094998;28;20052;-64
2022/09/23 02:27:17;;;;;;;26.17;21.42;;;9.90;99.90;;;;;;5094961;28;20044;-64
2022/09/23 02:30:02;;;;;;;24.35;21.70;;;9.90;99.90;;;;;;5093607;28;20121;-63
2022/09/23 02:32:33;;;;;;;25.40;21.15;;;9.80;99.90;;;;;;5094701;28;20044;-63
2022/09/23 02:35:24;;;;;;;25.35;20.63;;;10.40;99.90;;;;;;5094446;28;20055;-63
2022/09/23 02:38:15;;;;;;;29.27;21.02;;;9.70;99.90;;;;;;5094747;28;20060;-64
2022/09/23 02:40:49;;;;;;;26.48;20.90;;;9.70;99.90;;;;;;5094686;28;20127;-63
2022/09/23 02:43:35;;;;;;;28.27;21.77;;;10.50;99.90;;;;;;5094698;28;20048;-63
2022/09/23 02:46:03;;;;;;;27.25;20.70;;;9.80;99.90;;;;;;5094666;28;20048;-64
2022/09/23 02:48:59;;;;;;;26.15;21.13;;;9.90;99.90;;;;;;5093181;28;20054;-63
2022/09/23 02:51:27;;;;;;;27.67;21.08;;;9.60;99.90;;;;;;5094463;28;20384;-64
2022/09/23 02:53:57;;;;;;;26.27;21.35;;;9.60;99.90;;;;;;5094438;28;20055;-65
2022/09/23 02:56:22;;;;;;;29.92;20.73;;;10.30;99.90;;;;;;5094663;28;20384;-63
2022/09/23 02:58:51;;;;;;;23.83;21.13;;;9.40;99.90;;;;;;5094374;28;20044;-64
2022/09/23 03:01:32;;;;;;;27.83;21.10;;;9.50;99.90;;;;;;5076162;28;20044;-63
2022/09/23 03:04:37;;;;;;;26.02;20.88;;;9.50;99.90;;;;;;5092717;28;20079;-63
2022/09/23 03:07:17;;;;;;;26.98;20.80;;;9.70;99.90;;;;;;5094282;28;20056;-63
2022/09/23 03:10:08;;;;;;;25.25;21.17;;;9.70;99.90;;;;;;5092930;28;20051;-64
2022/09/23 03:12:52;;;;;;;24.73;20.38;;;9.50;99.90;;;;;;5093752;28;20496;-64
2022/09/23 03:15:51;;;;;;;25.92;20.48;;;9.40;99.90;;;;;;5094084;28;20043;-63
2022/09/23 03:18:30;;;;;;;26.05;19.88;;;9.00;99.90;;;;;;5088153;28;20092;-63
2022/09/23 03:21:06;;;;;;;27.48;21.15;;;9.30;99.90;;;;;;5093958;28;20048;-63
2022/09/23 03:23:34;;;;;;;25.45;21.05;;;9.60;99.90;;;;;;5093906;28;20491;-63
2022/09/23 03:26:09;;;;;;;25.90;20.73;;;9.60;99.90;;;;;;5093992;28;20048;-64
2022/09/23 03:28:36;;;;;;;32.60;20.60;;;9.60;99.90;;;;;;5094083;28;20395;-63
2022/09/23 03:31:02;;;;;;;27.50;20.65;;;9.50;99.90;;;;;;5093307;28;20088;-63
2022/09/23 03:33:30;;;;;;;25.02;20.10;;;9.60;99.90;;;;;;5093065;28;20496;-63
2022/09/23 03:38:57;;;;;;;28.02;21.88;;;9.30;99.90;;;;;;5093582;28;20060;-63
2022/09/23 03:41:33;;;;;;;30.95;20.92;;;9.50;99.90;;;;;;5093483;28;20040;-63
2022/09/23 03:44:00;;;;;;;31.25;20.42;;;10.20;99.90;;;;;;5093520;28;20494;-64
2022/09/23 03:46:28;;;;;;;23.85;19.65;;;9.20;99.90;;;;;;5092831;28;20550;-66
2022/09/23 03:49:12;;;;;;;25.42;20.67;;;9.20;99.90;;;;;;5093327;28;20044;-63
2022/09/23 03:51:38;;;;;;;25.25;20.55;;;10.20;99.90;;;;;;5093311;28;20040;-63
2022/09/23 03:54:04;;;;;;;27.88;21.25;;;9.00;99.90;;;;;;5093253;28;20142;-63
2022/09/23 03:56:30;;;;;;;27.13;20.45;;;9.20;99.90;;;;;;5093206;28;20567;-63
2022/09/23 03:58:55;;;;;;;26.30;21.08;;;9.20;99.90;;;;;;5092974;28;20408;-64
2022/09/23 04:01:21;;;;;;;25.90;20.45;;;9.00;99.90;;;;;;5093128;28;20732;-63
2022/09/23 04:03:47;;;;;;;27.42;21.73;;;9.40;99.90;;;;;;5092121;28;20442;-66
2022/09/23 04:06:13;;;;;;;27.27;21.10;;;9.00;99.90;;;;;;5092999;28;20424;-64
2022/09/23 04:08:40;;;;;;;24.52;20.25;;;8.90;99.90;;;;;;5092692;28;20456;-63
2022/09/23 04:11:05;;;;;;;29.80;21.92;;;9.30;99.90;;;;;;5092581;28;20519;-65
2022/09/23 04:13:31;;;;;;;29.60;21.08;;;9.30;99.90;;;;;;5092899;28;20043;-63
2022/09/23 04:15:57;;;;;;;31.48;21.27;;;9.00;99.90;;;;;;5092663;28;20099;-64
2022/09/23 04:18:23;;;;;;;28.45;21.73;;;9.20;99.90;;;;;;5092856;28;20120;-64
2022/09/23 04:20:49;;;;;;;27.90;21.92;;;8.60;99.90;;;;;;5092748;28;20047;-63
2022/09/23 04:23:14;;;;;;;29.80;22.33;;;10.20;99.90;;;;;;5092456;28;20093;-62
2022/09/23 04:25:47;;;;;;;32.17;22.98;;;8.90;99.90;;;;;;5092676;28;20058;-63
2022/09/23 04:28:13;;;;;;;30.95;21.83;;;8.60;99.90;;;;;;5092284;28;20381;-63
2022/09/23 04:30:43;;;;;;;;;;;9.30;99.90;;;;;;5092744;28;20056;-64
2022/09/23 04:33:12;;;;;;;28.30;20.70;;;9.10;99.90;;;;;;5092584;28;19931;-66
2022/09/23 04:35:41;;;;;;;28.67;21.60;;;9.00;99.90;;;;;;5092551;28;20056;-63
2022/09/23 04:38:09;;;;;;;27.80;21.40;;;9.60;99.90;;;;;;5092502;28;20126;-63
2022/09/23 04:40:35;;;;;;;27.42;21.83;;;9.10;99.90;;;;;;5092402;28;20048;-64
2022/09/23 04:43:01;;;;;;;;;;;9.00;99.90;;;;;;5092915;28;20044;-65
2022/09/23 04:45:26;;;;;;;31.65;22.50;;;9.30;99.90;;;;;;5092097;28;20279;-64
2022/09/23 04:47:52;;;;;;;28.45;22.35;;;8.90;99.90;;;;;;5092397;28;20040;-63
2022/09/23 04:50:18;;;;;;;29.10;21.42;;;9.50;99.90;;;;;;5092356;28;20384;-63
2022/09/23 04:52:44;;;;;;;32.90;21.95;;;8.90;99.90;;;;;;5090986;28;20054;-63
2022/09/23 04:55:09;;;;;;;26.17;22.00;;;10.10;99.90;;;;;;5092616;28;20454;-63
2022/09/23 04:57:35;;;;;;;28.17;22.20;;;9.10;99.90;;;;;;5092303;28;20409;-64
2022/09/23 05:00:01;;;;;;;29.58;22.60;;;9.00;99.90;;;;;;5091754;28;20059;-65
2022/09/23 05:02:27;;;;;;;26.92;21.13;;;9.00;99.90;;;;;;5092285;28;20086;-64
2022/09/23 05:04:54;;;;;;;29.65;22.35;;;9.30;99.90;;;;;;5090988;28;20057;-63
2022/09/23 05:07:20;;;;;;;26.55;22.08;;;9.20;99.90;;;;;;5090899;28;20070;-63
2022/09/23 05:09:46;;;;;;;26.23;21.42;;;8.90;99.90;;;;;;5091849;28;20492;-65
2022/09/23 05:12:12;;;;;;;27.77;22.98;;;9.00;99.90;;;;;;5095169;28;20055;-64
2022/09/23 05:14:37;;;;;;;30.13;22.88;;;9.10;99.90;;;;;;5096128;28;20040;-63
2022/09/23 05:17:04;;;;;;;30.33;22.50;;;9.80;99.90;;;;;;5095147;28;20456;-63
2022/09/23 05:19:30;;;;;;;33.80;21.88;;;9.50;99.90;;;;;;5095179;28;20043;-63
2022/09/23 05:21:55;;;;;;;30.75;21.65;;;9.20;99.90;;;;;;5096452;28;20044;-63
2022/09/23 05:24:23;;;;;;;28.35;22.08;;;9.00;99.90;;;;;;5096247;28;20051;-66
2022/09/23 05:26:48;;;;;;;33.72;22.20;;;10.30;99.90;;;;;;5096116;28;20080;-63
2022/09/23 05:29:14;;;;;;;28.80;22.55;;;9.20;99.90;;;;;;5095656;28;20475;-63
2022/09/23 05:31:40;;;;;;;28.95;21.77;;;10.70;99.90;;;;;;5095958;28;20047;-63
2022/09/23 05:34:06;;;;;;;27.58;21.17;;;9.40;99.90;;;;;;5095942;28;20469;-64
2022/09/23 05:36:34;;;;;;;29.17;22.27;;;9.20;99.90;;;;;;5095947;28;20442;-64
2022/09/23 05:38:59;;;;;;;33.67;22.95;;;9.40;99.90;;;;;;5095805;28;20047;-63
2022/09/23 05:41:26;;;;;;;27.45;21.02;;;9.50;99.90;;;;;;5095796;28;20118;-65
2022/09/23 05:43:53;;;;;;;30.38;21.55;;;9.10;99.90;;;;;;5095434;28;20480;-65
2022/09/23 05:46:20;;;;;;;26.20;20.10;;;9.00;99.90;;;;;;5094692;28;20048;-63
2022/09/23 05:48:46;;;;;;;26.30;20.60;;;9.50;99.90;;;;;;5095662;28;20047;-63
2022/09/23 05:51:15;;;;;;;28.25;20.80;;;9.60;99.90;;;;;;5095542;28;20127;-64
2022/09/23 05:53:43;;;;;;;28.65;21.65;;;9.40;99.90;;;;;;5095544;28;20047;-64
2022/09/23 05:56:10;;;;;;;29.60;22.00;;;9.50;99.90;;;;;;5095218;28;20051;-64
2022/09/23 05:58:35;;;;;;;29.80;21.25;;;9.30;99.90;;;;;;5094173;28;20051;-63
2022/09/23 06:01:08;;;;;;;27.80;23.13;;;9.60;99.90;;;;;;5095422;28;20044;-64
2022/09/23 06:03:34;;;;;;;30.08;22.13;;;9.20;99.90;;;;;;5085943;28;20126;-64
2022/09/23 06:06:00;;;;;;;26.08;21.85;;;9.30;99.90;;;;;;5094396;28;20440;-64
2022/09/23 06:08:25;;;;;;;28.45;21.83;;;10.70;99.90;;;;;;5094315;28;20488;-64
2022/09/23 06:10:51;;;;;;;26.75;20.40;;;9.80;99.90;;;;;;5093292;28;20071;-63
2022/09/23 06:13:16;;;;;;;29.15;21.55;;;9.30;99.90;;;;;;5094503;28;20071;-63
2022/09/23 06:15:43;;;;;;;30.48;21.92;;;9.50;99.90;;;;;;5094424;28;20169;-66
2022/09/23 06:18:09;;;;;;;28.08;21.55;;;10.20;99.90;;;;;;5093896;28;20052;-66
2022/09/23 06:20:35;;;;;;;24.50;21.70;;;9.90;99.90;;;;;;5094479;28;20054;-65
2022/09/23 06:23:05;;;;;;;26.77;21.63;;;9.90;99.90;;;;;;5094101;28;20039;-63
2022/09/23 06:25:32;;;;;;;31.27;21.45;;;10.20;99.90;;;;;;5093362;28;20499;-64
2022/09/23 06:27:58;;;;;;;26.67;22.02;;;10.10;99.90;;;;;;5094381;28;20040;-64
2022/09/23 06:30:25;;;;;;;26.13;21.20;;;10.00;99.90;;;;;;5089278;28;20415;-72
2022/09/23 06:32:53;;;;;;;29.60;22.15;;;10.50;99.90;;;;;;5092528;28;20491;-64
2022/09/23 06:35:20;;;;;;;26.38;21.52;;;9.90;99.90;;;;;;5092509;28;20097;-68
2022/09/23 06:37:46;;;;;;;27.05;21.05;;;9.90;99.90;;;;;;5090579;28;20086;-67
2022/09/23 06:40:13;;;;;;;25.90;21.75;;;11.00;99.90;;;;;;5092928;28;20172;-65
2022/09/23 06:42:39;;;;;;;26.42;22.20;;;10.10;99.90;;;;;;5093679;28;20048;-65
2022/09/23 06:45:05;;;;;;;27.98;21.88;;;12.10;99.90;;;;;;5093349;28;20059;-64
2022/09/23 06:47:31;;;;;;;;;;;10.30;99.90;;;;;;5093495;28;20048;-68
2022/09/23 06:49:56;;;;;;;28.10;21.92;;;10.50;99.90;;;;;;5093498;28;20439;-64
2022/09/23 06:52:22;;;;;;;26.27;21.58;;;11.50;99.90;;;;;;5093262;28;20530;-65
2022/09/23 06:54:48;;;;;;;27.55;21.58;;;10.50;99.90;;;;;;5092707;28;20499;-62
2022/09/23 06:57:14;;;;;;;29.20;20.55;;;10.70;99.90;;;;;;5093547;28;20093;-63
2022/09/23 06:59:40;;;;;;;26.88;21.95;;;10.70;99.90;;;;;;5092325;28;20043;-65
2022/09/23 07:02:08;;;;;;;26.25;20.23;;;10.60;99.90;;;;;;5092457;28;20522;-63
2022/09/23 07:04:34;;;;;;;23.63;20.73;;;10.60;99.90;;;;;;5094039;28;20088;-63
2022/09/23 07:07:00;;;;;;;27.08;21.33;;;11.70;99.90;;;;;;5093949;28;20621;-64
2022/09/23 07:09:26;;;;;;;25.33;21.08;;;10.90;99.90;;;;;;5093673;28;20176;-63
2022/09/23 07:11:52;;;;;;;28.30;21.80;;;10.80;99.90;;;;;;5094006;28;20044;-63
2022/09/23 07:14:18;;;;;;;31.85;21.13;;;10.70;99.90;;;;;;5093585;28;20059;-64
2022/09/23 07:16:44;;;;;;;23.15;18.50;;;10.90;99.90;;;;;;5092566;28;20046;-65
2022/09/23 07:19:11;;;;;;;24.60;19.30;;;11.10;99.90;;;;;;5091483;28;20036;-64
2022/09/23 07:21:36;;;;;;;26.98;19.75;;;11.10;99.90;;;;;;5093094;28;20049;-63
2022/09/23 07:24:02;;;;;;;25.98;19.98;;;11.30;99.90;;;;;;5092528;28;20397;-64
2022/09/23 07:26:32;;;;;;;22.05;19.30;;;11.20;99.90;;;;;;5093177;28;20134;-65
2022/09/23 07:29:06;;;;;;;23.48;18.45;;;12.60;99.90;;;;;;5095679;28;20135;-63
2022/09/23 07:31:33;;;;;;;27.27;19.40;;;12.50;99.90;;;;;;5083156;28;20094;-67
2022/09/23 07:34:02;;;;;;;24.25;19.15;;;11.70;99.90;;;;;;5089425;28;20051;-67
2022/09/23 07:36:31;;;;;;;22.08;18.73;;;11.50;99.90;;;;;;5090784;28;20039;-65
2022/09/23 07:39:01;;;;;;;20.40;17.65;;;11.80;99.90;;;;;;5091561;28;20135;-63
2022/09/23 07:41:27;;;;;;;22.50;17.48;;;12.40;99.90;;;;;;5092342;28;20039;-62
2022/09/23 07:43:57;;;;;;;21.55;18.27;;;12.60;99.90;;;;;;5090022;28;20051;-65
2022/09/23 07:46:26;;;;;;;24.85;19.00;;;12.00;99.90;;;;;;5093146;28;20105;-65
2022/09/23 07:48:52;;;;;;;23.08;18.08;;;11.90;99.90;;;;;;5093267;28;20036;-63
2022/09/23 07:51:24;;;;;;;26.23;18.20;;;12.40;99.90;;;;;;5093235;28;20135;-66
2022/09/23 07:53:51;;;;;;;23.75;18.58;;;12.40;99.90;;;;;;5092940;28;20070;-62
2022/09/23 07:56:19;;;;;;;23.95;17.58;;;12.40;99.90;;;;;;5093141;28;20050;-62
2022/09/23 07:59:00;;;;;;;24.35;18.42;;;12.50;99.90;;;;;;5093137;28;20456;-64
2022/09/23 08:01:35;;;;;;;21.48;17.83;;;12.40;99.90;;;;;;5091978;28;20056;-65
2022/09/23 08:04:26;;;;;;;21.30;17.42;;;12.40;99.90;;;;;;5093142;28;20043;-64
2022/09/23 08:06:58;;;;;;;23.85;17.10;;;12.40;99.90;;;;;;5092511;28;20048;-64
2022/09/23 08:09:27;;;;;;;24.63;17.85;;;12.40;99.90;;;;;;5092995;28;20395;-65
2022/09/23 08:11:54;;;;;;;21.70;16.60;;;13.00;99.90;;;;;;5092838;28;20097;-66
2022/09/23 08:14:21;;;;;;;22.15;16.30;;;12.80;99.90;;;;;;5092843;28;20105;-64
2022/09/23 08:16:47;;;;;;;18.30;15.90;;;12.60;99.90;;;;;;5092808;28;20127;-67
2022/09/23 08:19:13;;;;;;;22.27;17.45;;;13.00;99.90;;;;;;5092731;28;20050;-64
2022/09/23 08:21:40;;;;;;;21.92;15.98;;;13.50;99.90;;;;;;5092169;28;20514;-65
2022/09/23 08:24:07;;;;;;;29.55;16.02;;;13.30;99.90;;;;;;5092672;28;20059;-64
2022/09/23 08:26:33;;;;;;;20.75;14.88;;;13.20;99.90;;;;;;5091390;28;20395;-64
2022/09/23 08:28:59;;;;;;;22.00;15.55;;;13.30;99.90;;;;;;5092433;28;20052;-64
2022/09/23 08:31:25;;;;;;;;;;;13.40;99.90;;;;;;5092948;28;20044;-64
2022/09/23 08:33:55;;;;;;;22.85;16.48;;;15.00;99.90;;;;;;5092539;28;19919;-64
2022/09/23 08:36:21;;;;;;;25.00;18.83;;;13.40;99.90;;;;;;5092258;28;20102;-64
2022/09/23 08:38:47;;;;;;;;;;;12.80;99.90;;;;;;5092898;28;20048;-63
2022/09/23 08:41:19;;;;;;;22.48;15.98;;;13.40;99.90;;;;;;5092481;28;19934;-64
2022/09/23 08:43:53;;;;;;;20.27;16.58;;;13.70;99.90;;;;;;5092490;28;20130;-65
2022/09/23 08:46:26;;;;;;;19.95;15.98;;;13.60;99.90;;;;;;5091594;28;20095;-68
2022/09/23 08:48:53;;;;;;;21.38;15.63;;;14.90;99.90;;;;;;5092457;28;20059;-64
2022/09/23 08:51:29;;;;;;;22.80;15.88;;;13.70;99.90;;;;;;5091964;28;20063;-68
2022/09/23 08:53:54;;;;;;;18.30;14.77;;;13.40;99.90;;;;;;5092366;28;20063;-65
2022/09/23 08:56:22;;;;;;;21.27;16.35;;;13.80;99.90;;;;;;5092354;28;20286;-64
2022/09/23 08:58:59;;;;;;;20.63;16.65;;;14.00;99.90;;;;;;5092435;28;20496;-64
2022/09/23 09:01:46;;;;;;;20.13;14.98;;;14.10;99.90;;;;;;5092421;28;20048;-64
2022/09/23 09:04:35;;;;;;;20.48;14.57;;;14.30;99.90;;;;;;5092227;28;20083;-64
2022/09/23 09:07:06;;;;;;;21.23;15.63;;;14.50;99.90;;;;;;5092210;28;20123;-64
2022/09/23 09:09:50;;;;;;;17.88;14.35;;;14.60;99.90;;;;;;5092122;28;20058;-65
2022/09/23 09:12:21;;;;;;;19.85;15.02;;;14.30;99.90;;;;;;5092093;28;20434;-63
2022/09/23 09:15:02;;;;;;;19.88;14.07;;;14.60;99.90;;;;;;5092164;28;20052;-63
2022/09/23 09:17:38;;;;;;;17.58;13.82;;;14.70;99.90;;;;;;5091984;28;20472;-64
2022/09/23 09:20:26;;;;;;;17.67;14.38;;;14.80;99.90;;;;;;5091817;28;20052;-66
2022/09/23 09:22:59;;;;;;;23.13;14.35;;;14.60;99.90;;;;;;5092079;28;20392;-64
2022/09/23 09:25:42;;;;;;;19.90;14.05;;;14.60;99.90;;;;;;5092053;28;20054;-65
2022/09/23 09:28:30;;;;;;;22.05;15.02;;;14.70;99.90;;;;;;5092006;28;20044;-64
2022/09/23 09:31:00;;;;;;;20.73;14.60;;;14.80;99.90;;;;;;5091395;28;20089;-64
2022/09/23 09:33:56;;;;;;;17.63;14.07;;;14.50;99.90;;;;;;5091902;28;20057;-65
2022/09/23 09:36:43;;;;;;;25.60;15.45;;;14.60;99.90;;;;;;5091925;28;20074;-64
2022/09/23 09:39:13;;;;;;;18.35;14.27;;;14.50;99.90;;;;;;5091915;28;20044;-64
2022/09/23 09:41:54;;;;;;;20.42;14.27;;;14.60;99.90;;;;;;5090570;28;20048;-64
2022/09/23 09:44:38;;;;;;;22.85;14.30;;;14.90;99.90;;;;;;5091785;28;20071;-66
2022/09/23 09:47:15;;;;;;;16.35;13.70;;;14.60;99.90;;;;;;5091767;28;20040;-65
2022/09/23 09:50:06;;;;;;;17.55;14.30;;;14.80;99.90;;;;;;5091541;28;20048;-63
2022/09/23 09:52:32;;;;;;;16.77;14.25;;;14.90;99.90;;;;;;5091742;28;20048;-66
2022/09/23 09:55:21;;;;;;;18.48;14.40;;;14.80;99.90;;;;;;5091390;28;20050;-64
2022/09/23 09:58:02;;;;;;;17.15;13.85;;;15.10;99.90;;;;;;5084471;28;20052;-64
2022/09/23 10:00:29;;;;;;;16.65;13.60;;;14.70;99.90;;;;;;5095562;28;20109;-65
2022/09/23 10:02:57;;;;;;;;;;;14.90;99.90;;;;;;5095638;28;20040;-64
2022/09/23 10:05:44;;;;;;;21.88;14.68;;;14.80;99.90;;;;;;5095355;28;19924;-64
2022/09/23 10:08:32;;;;;;;18.42;14.63;;;14.80;99.90;;;;;;5094861;28;20412;-65
2022/09/23 10:10:57;;;;;;;19.77;14.15;;;15.10;99.90;;;;;;5095200;28;20116;-64
2022/09/23 10:13:25;;;;;;;18.48;14.38;;;15.00;99.90;;;;;;5095264;28;20476;-67
2022/09/23 10:15:53;;;;;;;17.33;14.52;;;15.10;99.90;;;;;;5095172;28;20052;-64
2022/09/23 10:18:28;;;;;;;21.48;14.45;;;15.30;99.90;;;;;;5094855;28;20488;-65
2022/09/23 10:21:14;;;;;;;18.48;14.40;;;15.20;99.90;;;;;;5095175;28;20059;-65
2022/09/23 10:23:53;;;;;;;18.13;14.50;;;15.30;99.90;;;;;;5095085;28;20135;-65
2022/09/23 10:26:29;;;;;;;17.25;14.30;;;15.40;99.90;;;;;;5095083;28;20134;-64
2022/09/23 10:28:57;;;;;;;20.35;15.43;;;15.60;99.90;;;;;;5095059;28;20122;-65
2022/09/23 10:31:33;;;;;;;20.30;15.43;;;15.30;99.90;;;;;;5094309;28;20131;-64
2022/09/23 10:34:18;;;;;;;;;;;15.50;99.90;;;;;;5095264;28;20055;-64
2022/09/23 10:37:06;;;;;;;20.00;15.02;;;15.50;99.90;;;;;;5094854;28;19920;-64
2022/09/23 10:48:37;;;;;;;18.67;15.80;;;15.70;99.90;;;;;;5094197;28;20155;-64
2022/09/23 10:51:26;;;;;;;20.48;15.85;;;15.80;99.90;;;;;;5093572;28;20044;-64
2022/09/23 10:54:09;;;;;;;21.42;15.38;;;15.80;99.90;;;;;;5094633;28;20396;-64
2022/09/23 10:56:41;;;;;;;25.02;15.70;;;15.70;99.90;;;;;;5094478;28;20044;-64
2022/09/23 10:59:23;;;;;;;21.80;15.35;;;15.70;99.90;;;;;;5094440;28;20106;-64
2022/09/23 11:02:16;;;;;;;20.95;16.17;;;15.90;99.90;;;;;;5094157;28;20043;-64
2022/09/23 11:05:05;;;;;;;21.17;16.83;;;15.80;99.90;;;;;;5094315;28;20091;-65
2022/09/23 11:07:34;;;;;;;23.45;16.08;;;15.80;99.90;;;;;;5092973;28;20063;-67
2022/09/23 11:10:03;;;;;;;21.92;16.42;;;16.10;99.90;;;;;;5093266;28;20040;-63
2022/09/23 11:12:41;;;;;;;17.98;15.98;;;16.10;99.90;;;;;;5092658;28;20480;-64
2022/09/23 11:15:34;;;;;;;21.60;16.20;;;16.40;99.90;;;;;;5093819;28;20419;-64
2022/09/23 11:18:15;;;;;;;23.50;16.85;;;16.00;99.90;;;;;;5094041;28;20400;-63
2022/09/23 11:20:41;;;;;;;21.17;16.65;;;16.10;99.90;;;;;;5093971;28;20056;-66
2022/09/23 11:23:09;;;;;;;;;;;16.40;99.90;;;;;;5094308;28;20047;-65
2022/09/23 11:25:47;;;;;;;22.80;16.67;;;16.30;99.90;;;;;;5093862;28;19920;-64
2022/09/23 11:28:49;;;;;;;27.23;17.77;;;16.10;99.90;;;;;;5093721;28;20136;-67
2022/09/23 11:31:36;;;;;;;22.42;16.30;;;16.60;99.90;;;;;;5092974;28;20527;-63
2022/09/23 11:34:14;;;;;;;22.73;16.73;;;16.50;99.90;;;;;;5093750;28;20051;-64
2022/09/23 11:36:48;;;;;;;20.80;17.42;;;16.10;99.90;;;;;;5093854;28;20059;-64
2022/09/23 11:39:22;;;;;;;20.10;16.50;;;16.40;99.90;;;;;;5093635;28;20090;-64
2022/09/23 11:41:53;;;;;;;22.88;17.27;;;16.10;99.90;;;;;;5093625;28;20435;-64
2022/09/23 11:44:35;;;;;;;26.25;17.02;;;16.60;99.90;;;;;;5093290;28;20458;-65
2022/09/23 11:47:18;;;;;;;21.95;16.42;;;16.50;99.90;;;;;;5093520;28;20047;-65
2022/09/23 11:50:02;;;;;;;20.10;16.55;;;16.30;99.90;;;;;;5093417;28;20125;-67
2022/09/23 11:52:43;;;;;;;22.60;15.70;;;16.80;99.90;;;;;;5093392;28;20044;-64
2022/09/23 11:55:26;;;;;;;23.33;15.43;;;16.70;99.90;;;;;;5093049;28;20557;-64
2022/09/23 11:58:17;;;;;;;22.85;16.48;;;16.30;99.90;;;;;;5093388;28;20404;-64
2022/09/23 12:00:51;;;;;;;23.95;16.35;;;16.70;99.90;;;;;;5086840;28;20074;-64
2022/09/23 12:03:36;;;;;;;24.67;16.98;;;16.50;99.90;;;;;;5093200;28;20044;-64
2022/09/23 12:06:08;;;;;;;22.77;16.67;;;16.60;99.90;;;;;;5093188;28;20123;-65
2022/09/23 12:08:36;;;;;;;21.85;17.38;;;16.30;99.90;;;;;;5092821;28;20040;-64
2022/09/23 12:11:21;;;;;;;21.25;16.17;;;16.60;99.90;;;;;;5092987;28;20048;-63
2022/09/23 12:14:01;;;;;;;21.40;17.50;;;16.70;99.90;;;;;;5092704;28;20450;-67
2022/09/23 12:16:49;;;;;;;21.48;17.15;;;16.50;99.90;;;;;;5092942;28;20058;-64
2022/09/23 12:19:51;;;;;;;20.40;16.77;;;16.80;99.90;;;;;;5092867;28;20058;-63
2022/09/23 12:22:35;;;;;;;21.08;17.52;;;16.70;99.90;;;;;;5075857;28;20052;-63
2022/09/23 12:25:25;;;;;;;21.35;17.20;;;16.30;99.90;;;;;;5092805;28;20048;-64
2022/09/23 12:27:54;;;;;;;22.65;18.02;;;16.30;99.90;;;;;;5092535;28;20067;-65
2022/09/23 12:30:24;;;;;;;21.08;18.67;;;16.20;99.90;;;;;;5091238;28;20095;-64
2022/09/23 12:32:50;;;;;;;20.83;17.30;;;16.30;99.90;;;;;;5091304;28;20133;-64
2022/09/23 12:35:34;;;;;;;23.23;17.52;;;16.20;99.90;;;;;;5092616;28;20474;-63
2022/09/23 12:38:00;;;;;;;21.30;16.75;;;16.40;99.90;;;;;;5093073;28;20050;-63
2022/09/23 12:40:42;;;;;;;23.77;17.30;;;16.20;99.90;;;;;;5092778;28;20048;-64
2022/09/23 12:43:28;;;;;;;20.00;16.90;;;16.10;99.90;;;;;;5092319;28;20047;-64
2022/09/23 12:46:16;;;;;;;22.58;17.67;;;16.20;99.90;;;;;;5092598;28;20052;-63
2022/09/23 12:48:56;;;;;;;23.70;17.35;;;16.50;99.90;;;;;;5092432;28;20044;-63
2022/09/23 12:51:27;;;;;;;22.02;18.13;;;16.50;99.90;;;;;;5092298;28;20048;-65
2022/09/23 12:54:14;;;;;;;24.00;18.80;;;16.40;99.90;;;;;;5092347;28;20048;-66
2022/09/23 12:56:39;;;;;;;23.38;18.42;;;16.40;99.90;;;;;;5092088;28;20048;-63
2022/09/23 12:59:26;;;;;;;26.20;17.08;;;16.40;99.90;;;;;;5092224;28;20105;-63
2022/09/23 13:01:53;;;;;;;24.17;17.98;;;16.30;99.90;;;;;;5092286;28;20048;-63
2022/09/23 13:07:24;;;;;;;23.17;19.30;;;16.20;99.90;;;;;;5092251;28;20082;-63
2022/09/23 13:09:52;;;;;;;24.58;19.08;;;16.20;99.90;;;;;;5092164;28;20184;-64
2022/09/23 13:12:33;;;;;;;25.02;19.17;;;16.30;99.90;;;;;;5091763;28;20079;-64
2022/09/23 13:15:04;;;;;;;28.67;19.30;;;16.40;99.90;;;;;;5092080;28;20055;-65
2022/09/23 13:17:34;;;;;;;24.15;18.58;;;15.90;99.90;;;;;;5091102;28;20188;-64